URD weather

Burg Feuerstein Airport
Ebermannstadt, Bavaria, Germany

Public forecast

Using degrees Celsius for public forecast. Weather courtesy of forecast.io.

Closest aviation weather report (METAR) to Burg Feuerstein Airport

Closest report is Nuremberg Airport, 17.9 nm (33.1 km) S. Retrieved 2020/01/27 02:20 UTC (22 minutes ago):

EDDN 270220Z 11008KT 2900 BR FEW028 M02/M03 Q1017

Closest aviation forecast (TAF) to Burg Feuerstein Airport

Closest forecast is Nuremberg Airport, 17.9 nm (33.1 km) S. Retrieved 2020-01-27 00:27 UTC (2 hours ago):

TAF EDDN 262300Z 2700/2724 13006KT 3500 BR FEW025 PROB30 TEMPO 2702/2708 BKN006 BECMG 2706/2708 9000 TEMPO 2722/2724 RA